createdAt,value
2023-04-17T00:01:24.926Z,28.50
2023-04-17T00:03:53.076Z,28.45
2023-04-17T00:06:20.011Z,27.77
2023-04-17T00:08:46.872Z,27.13
2023-04-17T00:11:13.466Z,32.17
2023-04-17T00:13:40.018Z,29.27
2023-04-17T00:16:07.503Z,29.00
2023-04-17T00:18:34.135Z,27.97
2023-04-17T00:21:00.722Z,25.83
2023-04-17T00:23:27.339Z,31.02
2023-04-17T00:25:53.933Z,25.85
2023-04-17T00:28:20.923Z,29.80
2023-04-17T00:30:47.596Z,28.57
2023-04-17T00:33:14.169Z,29.52
2023-04-17T00:35:40.783Z,29.55
2023-04-17T00:38:10.476Z,29.08
2023-04-17T00:40:37.072Z,35.08
2023-04-17T00:43:06.462Z,25.60
2023-04-17T00:45:33.384Z,31.50
2023-04-17T00:48:01.342Z,30.65
2023-04-17T00:50:28.733Z,35.15
2023-04-17T00:52:55.950Z,35.30
2023-04-17T00:55:22.987Z,36.97
2023-04-17T00:57:50.472Z,33.10
2023-04-17T01:00:18.311Z,32.58
2023-04-17T01:02:46.891Z,34.88
2023-04-17T01:05:13.691Z,37.50
2023-04-17T01:07:41.358Z,38.60
2023-04-17T01:10:08.984Z,35.95
2023-04-17T01:12:36.328Z,33.22
2023-04-17T01:15:03.002Z,42.58
2023-04-17T01:17:29.872Z,26.58
2023-04-17T01:19:57.772Z,32.03
2023-04-17T01:22:24.516Z,35.38
2023-04-17T01:24:51.097Z,37.47
2023-04-17T01:27:17.699Z,32.15
2023-04-17T01:29:44.380Z,37.40
2023-04-17T01:32:11.173Z,34.50
2023-04-17T01:34:37.950Z,33.95
2023-04-17T01:37:04.829Z,39.22
2023-04-17T01:39:31.516Z,33.83
2023-04-17T01:41:58.197Z,36.40
2023-04-17T01:44:24.837Z,33.47
2023-04-17T01:46:51.694Z,32.88
2023-04-17T01:49:18.488Z,31.30
2023-04-17T01:51:45.417Z,35.85
2023-04-17T01:54:12.030Z,30.45
2023-04-17T01:56:38.875Z,31.13
2023-04-17T01:59:05.760Z,28.80
2023-04-17T02:01:32.750Z,32.63
2023-04-17T02:03:59.691Z,35.63
2023-04-17T02:06:27.457Z,40.25
2023-04-17T02:08:54.269Z,44.73
2023-04-17T02:11:21.521Z,38.50
2023-04-17T02:13:48.101Z,35.67
2023-04-17T02:16:14.818Z,34.45
2023-04-17T02:18:41.518Z,34.70
2023-04-17T02:21:09.900Z,31.80
2023-04-17T02:23:36.740Z,32.47
2023-04-17T02:26:03.568Z,30.23
2023-04-17T02:28:30.454Z,29.98
2023-04-17T02:30:57.227Z,26.70
2023-04-17T02:33:23.980Z,26.40
2023-04-17T02:35:50.588Z,31.83
2023-04-17T02:38:17.303Z,28.23
2023-04-17T02:40:43.934Z,31.98
2023-04-17T02:43:10.626Z,26.70
2023-04-17T02:45:37.282Z,32.70
2023-04-17T02:48:04.143Z,28.27
2023-04-17T02:50:30.782Z,28.85
2023-04-17T02:52:57.392Z,29.02
2023-04-17T02:55:24.607Z,28.98
2023-04-17T02:57:51.223Z,28.27
2023-04-17T03:00:17.876Z,31.67
2023-04-17T03:02:44.739Z,29.20
2023-04-17T03:05:14.967Z,29.05
2023-04-17T03:07:41.590Z,29.77
2023-04-17T03:10:09.436Z,29.27
2023-04-17T03:12:36.168Z,34.47
2023-04-17T03:15:02.888Z,32.20
2023-04-17T03:17:29.530Z,29.23
2023-04-17T03:19:56.287Z,29.13
2023-04-17T03:22:22.826Z,29.33
2023-04-17T03:24:49.410Z,34.33
2023-04-17T03:27:15.971Z,30.48
2023-04-17T03:29:42.507Z,30.00
2023-04-17T03:32:09.189Z,32.60
2023-04-17T03:34:35.854Z,36.47
2023-04-17T03:37:02.464Z,33.83
2023-04-17T03:39:29.034Z,29.05
2023-04-17T03:41:56.430Z,30.23
2023-04-17T03:44:23.024Z,34.20
2023-04-17T03:46:49.572Z,33.20
2023-04-17T03:49:16.193Z,29.77
2023-04-17T03:51:42.829Z,34.10
2023-04-17T03:54:09.662Z,34.47
2023-04-17T03:56:36.538Z,38.58
2023-04-17T03:59:05.971Z,33.13
2023-04-17T04:01:32.961Z,35.00
2023-04-17T04:04:00.217Z,40.85
2023-04-17T04:06:29.995Z,40.40
2023-04-17T04:08:57.320Z,40.03
2023-04-17T04:11:24.049Z,37.57
2023-04-17T04:13:50.853Z,40.15
2023-04-17T04:16:17.446Z,37.30
2023-04-17T04:18:44.163Z,37.35
2023-04-17T04:21:12.278Z,43.22
2023-04-17T04:23:41.445Z,42.93
2023-04-17T04:26:08.253Z,46.83
2023-04-17T04:28:34.880Z,43.45
2023-04-17T04:31:02.780Z,41.58
2023-04-17T04:33:29.839Z,36.95
2023-04-17T04:35:56.654Z,48.50
2023-04-17T04:38:29.995Z,42.08
2023-04-17T04:41:06.434Z,44.65
2023-04-17T04:43:33.825Z,49.60
2023-04-17T04:46:00.514Z,44.90
2023-04-17T04:48:27.564Z,46.93
2023-04-17T04:50:54.535Z,44.55
2023-04-17T04:53:21.249Z,48.72
2023-04-17T04:55:47.813Z,48.35
2023-04-17T04:58:14.672Z,45.22
2023-04-17T05:00:41.358Z,46.27
2023-04-17T05:03:08.288Z,49.05
2023-04-17T05:05:35.975Z,45.75
2023-04-17T05:08:02.950Z,48.50
2023-04-17T05:10:29.840Z,48.50
2023-04-17T05:12:56.611Z,53.80
2023-04-17T05:15:23.362Z,41.53
2023-04-17T05:17:50.093Z,49.25
2023-04-17T05:20:16.849Z,49.03
2023-04-17T05:22:43.447Z,44.28
2023-04-17T05:25:10.190Z,54.27
2023-04-17T05:27:36.797Z,42.30
2023-04-17T05:30:04.466Z,48.95
2023-04-17T05:32:31.505Z,52.05
2023-04-17T05:34:58.194Z,46.75
2023-04-17T05:37:24.847Z,45.03
2023-04-17T05:39:51.737Z,49.55
2023-04-17T05:42:18.273Z,42.42
2023-04-17T05:44:45.175Z,47.58
2023-04-17T05:47:11.737Z,46.10
2023-04-17T05:49:38.347Z,51.00
2023-04-17T05:52:05.282Z,42.80
2023-04-17T05:54:31.917Z,50.63
2023-04-17T05:56:58.473Z,41.22
2023-04-17T05:59:25.397Z,44.03
2023-04-17T06:01:52.690Z,43.63
2023-04-17T06:04:19.498Z,41.80
2023-04-17T06:06:46.358Z,43.10
2023-04-17T06:09:13.143Z,42.67
2023-04-17T06:11:39.803Z,41.63
2023-04-17T06:14:06.498Z,41.50
2023-04-17T06:16:33.064Z,40.55
2023-04-17T06:18:59.683Z,37.25
2023-04-17T06:21:26.829Z,48.20
2023-04-17T06:23:53.435Z,46.20
2023-04-17T06:26:20.391Z,46.20
2023-04-17T06:28:46.950Z,42.92
2023-04-17T06:31:13.576Z,43.50
2023-04-17T06:33:40.225Z,34.15
2023-04-17T06:36:07.504Z,29.80
2023-04-17T06:38:34.189Z,47.57
2023-04-17T06:41:01.001Z,30.77
2023-04-17T06:43:27.914Z,37.53
2023-04-17T06:45:54.985Z,44.67
2023-04-17T06:48:21.603Z,45.30
2023-04-17T06:50:49.679Z,37.83
2023-04-17T06:53:16.294Z,48.17
2023-04-17T06:55:43.501Z,39.83
2023-04-17T06:58:10.264Z,46.08
2023-04-17T07:00:37.139Z,50.00
2023-04-17T07:03:06.095Z,38.77
2023-04-17T07:05:32.915Z,40.80
2023-04-17T07:07:59.508Z,39.03
2023-04-17T07:10:26.099Z,41.33
2023-04-17T07:12:52.899Z,39.53
2023-04-17T07:15:19.607Z,33.63
2023-04-17T07:17:46.359Z,39.80
2023-04-17T07:20:13.297Z,40.92
2023-04-17T07:22:40.180Z,35.50
2023-04-17T07:25:07.646Z,35.30
2023-04-17T07:27:34.391Z,35.17
2023-04-17T07:30:01.036Z,31.55
2023-04-17T07:32:28.738Z,28.40
2023-04-17T07:34:55.755Z,32.72
2023-04-17T07:37:22.328Z,34.92
2023-04-17T07:39:50.511Z,32.70
2023-04-17T07:42:17.360Z,32.20
2023-04-17T07:44:44.076Z,36.53
2023-04-17T07:47:10.776Z,31.00
2023-04-17T07:49:39.885Z,35.67
2023-04-17T07:52:06.517Z,32.30
2023-04-17T07:54:33.171Z,27.80
2023-04-17T07:57:03.541Z,25.02
2023-04-17T07:59:30.727Z,29.73
2023-04-17T08:02:00.448Z,28.52
2023-04-17T08:04:27.225Z,26.43
2023-04-17T08:06:54.233Z,28.77
2023-04-17T08:09:22.260Z,28.42
2023-04-17T08:11:57.044Z,25.35
2023-04-17T08:14:25.279Z,27.67
2023-04-17T08:16:52.235Z,29.23
2023-04-17T08:19:18.871Z,27.27
2023-04-17T08:21:48.324Z,25.23
2023-04-17T08:24:16.309Z,27.98
2023-04-17T08:26:44.495Z,27.58
2023-04-17T08:29:11.511Z,25.43
2023-04-17T08:31:39.898Z,24.23
2023-04-17T08:34:14.325Z,29.15
2023-04-17T08:36:41.724Z,24.08
2023-04-17T08:39:10.356Z,26.00
2023-04-17T08:41:43.590Z,28.87
2023-04-17T08:44:10.923Z,22.50
2023-04-17T08:46:38.924Z,32.10
2023-04-17T08:49:05.896Z,27.63
2023-04-17T08:51:32.784Z,29.08
2023-04-17T08:53:59.437Z,24.17
2023-04-17T08:56:26.444Z,24.48
2023-04-17T08:58:53.059Z,26.83
2023-04-17T09:01:20.791Z,30.13
2023-04-17T09:03:49.064Z,29.80
2023-04-17T09:06:16.165Z,31.73
2023-04-17T09:08:57.125Z,25.98
2023-04-17T09:11:23.972Z,29.10
2023-04-17T09:13:50.694Z,27.27
2023-04-17T09:16:19.596Z,31.67
2023-04-17T09:18:47.567Z,28.30
2023-04-17T09:21:16.728Z,26.20
2023-04-17T09:24:01.450Z,28.25
2023-04-17T09:26:32.115Z,28.13
2023-04-17T09:29:12.129Z,28.15
2023-04-17T09:31:43.540Z,24.43
2023-04-17T09:34:12.163Z,24.55
2023-04-17T09:36:41.656Z,28.52
2023-04-17T09:39:24.429Z,27.45
2023-04-17T09:42:03.331Z,26.50
2023-04-17T09:44:30.551Z,24.27
2023-04-17T09:46:57.336Z,30.40
2023-04-17T09:49:37.918Z,27.90
2023-04-17T09:52:04.610Z,29.75
2023-04-17T09:54:33.203Z,33.70
2023-04-17T09:57:03.759Z,31.67
2023-04-17T09:59:31.377Z,29.10
2023-04-17T10:01:58.333Z,33.03
2023-04-17T10:04:25.167Z,28.10
2023-04-17T10:06:52.194Z,29.58
2023-04-17T10:09:18.753Z,28.30
2023-04-17T10:11:46.209Z,26.05
2023-04-17T10:14:18.628Z,29.05
2023-04-17T10:16:47.226Z,25.25
2023-04-17T10:19:34.265Z,24.55
2023-04-17T10:22:16.277Z,26.53
2023-04-17T10:24:43.261Z,24.83
2023-04-17T10:27:24.825Z,22.25
2023-04-17T10:29:55.580Z,24.42
2023-04-17T10:32:27.752Z,29.70
2023-04-17T10:34:56.198Z,29.80
2023-04-17T10:37:51.691Z,21.40
2023-04-17T10:40:21.456Z,23.55
2023-04-17T10:43:22.702Z,25.77
2023-04-17T10:46:01.783Z,22.15
2023-04-17T10:48:33.244Z,20.70
2023-04-17T10:51:01.035Z,19.40
2023-04-17T10:53:38.293Z,26.83
2023-04-17T10:56:05.565Z,28.25
2023-04-17T10:58:32.567Z,20.00
2023-04-17T11:01:03.414Z,17.57
2023-04-17T11:03:31.118Z,24.95
2023-04-17T11:05:59.385Z,33.03
2023-04-17T11:08:26.279Z,23.05
2023-04-17T11:10:54.812Z,22.20
2023-04-17T11:13:22.249Z,20.50
2023-04-17T11:15:51.176Z,24.77
2023-04-17T11:18:20.726Z,21.40
2023-04-17T11:20:47.346Z,24.00
2023-04-17T11:23:16.052Z,24.38
2023-04-17T11:25:43.822Z,25.80
2023-04-17T11:28:11.937Z,23.85
2023-04-17T11:30:45.183Z,26.05
2023-04-17T11:33:16.292Z,19.92
2023-04-17T11:35:43.947Z,23.23
2023-04-17T11:38:22.041Z,23.83
2023-04-17T11:40:58.555Z,23.73
2023-04-17T11:43:26.086Z,21.05
2023-04-17T11:45:54.899Z,24.25
2023-04-17T11:48:24.158Z,25.73
2023-04-17T11:50:58.972Z,20.57
2023-04-17T11:53:25.718Z,23.50
2023-04-17T11:56:14.900Z,18.65
2023-04-17T11:58:55.216Z,23.10
2023-04-17T12:01:26.640Z,29.27
2023-04-17T12:03:57.775Z,24.70
2023-04-17T12:06:25.006Z,24.00
2023-04-17T12:08:54.012Z,19.92
2023-04-17T12:11:25.307Z,24.90
2023-04-17T12:13:53.158Z,24.88
2023-04-17T12:16:20.298Z,22.37
2023-04-17T12:18:46.999Z,17.60
2023-04-17T12:21:14.110Z,19.42
2023-04-17T12:23:41.490Z,18.23
2023-04-17T12:26:08.731Z,21.80
2023-04-17T12:28:35.916Z,26.77
2023-04-17T12:31:04.016Z,25.60
2023-04-17T12:33:31.594Z,19.42
2023-04-17T12:36:00.032Z,22.15
2023-04-17T12:38:26.814Z,22.33
2023-04-17T12:40:53.449Z,21.43
2023-04-17T12:43:20.274Z,24.35
2023-04-17T12:45:47.028Z,22.85
2023-04-17T12:48:15.003Z,25.15
2023-04-17T12:50:43.811Z,27.17
2023-04-17T12:53:13.509Z,21.73
2023-04-17T12:55:42.308Z,20.17
2023-04-17T12:58:13.014Z,19.75
2023-04-17T13:00:43.941Z,22.23
2023-04-17T13:03:12.122Z,23.38
2023-04-17T13:05:39.531Z,23.17
2023-04-17T13:08:06.279Z,22.33
2023-04-17T13:10:34.465Z,26.25
2023-04-17T13:13:02.439Z,28.45
2023-04-17T13:15:29.341Z,23.15
2023-04-17T13:17:56.194Z,17.20
2023-04-17T13:20:22.914Z,25.70
2023-04-17T13:22:49.532Z,25.55
2023-04-17T13:25:16.106Z,25.48
2023-04-17T13:27:42.896Z,21.90
2023-04-17T13:30:10.168Z,23.67
2023-04-17T13:32:36.851Z,23.50
2023-04-17T13:35:05.262Z,22.45
2023-04-17T13:37:32.127Z,17.40
2023-04-17T13:39:59.778Z,20.65
2023-04-17T13:42:26.843Z,25.83
2023-04-17T13:44:53.347Z,26.48
2023-04-17T13:47:20.123Z,23.10
2023-04-17T13:49:46.812Z,22.98
2023-04-17T13:52:13.433Z,24.00
2023-04-17T13:54:41.033Z,24.00
2023-04-17T13:57:08.301Z,22.15
2023-04-17T13:59:35.044Z,26.55
2023-04-17T14:02:04.076Z,16.77
2023-04-17T14:04:31.676Z,23.02
2023-04-17T14:06:58.430Z,21.50
2023-04-17T14:09:25.279Z,22.50
2023-04-17T14:11:51.948Z,22.23
2023-04-17T14:14:18.475Z,23.98
2023-04-17T14:16:48.305Z,20.65
2023-04-17T14:19:15.295Z,20.10
2023-04-17T14:21:42.201Z,25.80
2023-04-17T14:24:09.335Z,19.63
2023-04-17T14:26:37.733Z,18.15
2023-04-17T14:29:04.563Z,18.80
2023-04-17T14:31:31.749Z,20.67
2023-04-17T14:33:58.639Z,18.65
2023-04-17T14:36:26.003Z,19.73
2023-04-17T14:38:53.933Z,18.05
2023-04-17T14:41:20.916Z,15.05
2023-04-17T14:43:47.515Z,17.27
2023-04-17T14:46:14.345Z,18.95
2023-04-17T14:48:54.004Z,29.35
2023-04-17T14:51:23.332Z,33.55
2023-04-17T14:53:52.888Z,29.00
2023-04-17T14:56:20.124Z,28.77
2023-04-17T14:58:47.003Z,29.40
2023-04-17T15:01:13.590Z,27.83
2023-04-17T15:03:40.672Z,25.92
2023-04-17T15:06:08.961Z,33.35
2023-04-17T15:08:35.603Z,32.43
2023-04-17T15:11:02.226Z,32.70
2023-04-17T15:13:28.848Z,31.70
2023-04-17T15:15:55.676Z,35.65
2023-04-17T15:18:22.352Z,32.50
2023-04-17T15:20:48.932Z,29.17
2023-04-17T15:23:17.485Z,29.08
2023-04-17T15:25:44.241Z,26.08
2023-04-17T15:28:12.447Z,26.33
2023-04-17T15:30:39.410Z,30.65
2023-04-17T15:33:08.313Z,25.27
2023-04-17T15:35:36.823Z,23.65
2023-04-17T15:38:03.615Z,26.77
2023-04-17T15:40:30.161Z,28.35
2023-04-17T15:42:56.844Z,27.95
2023-04-17T15:45:24.147Z,27.60
2023-04-17T15:47:50.879Z,28.10
2023-04-17T15:50:19.186Z,33.83
2023-04-17T15:52:46.128Z,27.02
2023-04-17T15:55:13.156Z,27.35
2023-04-17T15:57:42.401Z,26.27
2023-04-17T16:00:10.545Z,34.50
2023-04-17T16:02:37.270Z,25.33
2023-04-17T16:05:04.705Z,26.05
2023-04-17T16:07:32.013Z,26.90
2023-04-17T16:09:59.149Z,25.07
2023-04-17T16:12:28.940Z,27.10
2023-04-17T16:14:55.485Z,27.17
2023-04-17T16:17:22.106Z,29.08
2023-04-17T16:19:50.625Z,26.73
2023-04-17T16:22:18.511Z,27.90
2023-04-17T16:24:45.121Z,25.98
2023-04-17T16:27:11.795Z,28.08
2023-04-17T16:29:38.384Z,31.33
2023-04-17T16:32:05.136Z,27.25
2023-04-17T16:34:31.750Z,25.27
2023-04-17T16:36:58.359Z,26.63
2023-04-17T16:39:24.990Z,28.77
2023-04-17T16:41:52.977Z,27.73
2023-04-17T16:44:19.632Z,29.38
2023-04-17T16:47:05.519Z,25.63
2023-04-17T16:49:32.832Z,24.02
2023-04-17T16:51:59.691Z,24.60
2023-04-17T16:54:26.379Z,23.52
2023-04-17T16:56:52.972Z,30.58
2023-04-17T16:59:19.594Z,30.27
2023-04-17T17:01:49.753Z,26.27
2023-04-17T17:04:16.494Z,26.52
2023-04-17T17:06:43.166Z,25.77
2023-04-17T17:09:09.894Z,27.92
2023-04-17T17:11:36.488Z,25.90
2023-04-17T17:14:03.050Z,24.50
2023-04-17T17:16:29.879Z,30.45
2023-04-17T17:18:56.641Z,29.55
2023-04-17T17:21:23.166Z,28.45
2023-04-17T17:23:49.738Z,30.37
2023-04-17T17:26:17.454Z,29.13
2023-04-17T17:28:50.862Z,31.60
2023-04-17T17:31:17.693Z,30.00
2023-04-17T17:33:44.699Z,31.35
2023-04-17T17:36:12.049Z,28.53
2023-04-17T17:38:39.033Z,26.17
2023-04-17T17:41:06.020Z,31.65
2023-04-17T17:43:32.758Z,34.55
2023-04-17T17:45:59.371Z,26.10
2023-04-17T17:48:26.013Z,27.33
2023-04-17T17:50:57.297Z,31.13
2023-04-17T17:53:26.189Z,27.02
2023-04-17T17:55:55.157Z,29.65
2023-04-17T17:58:22.369Z,28.25
2023-04-17T18:00:49.875Z,28.43
2023-04-17T18:03:17.015Z,33.60
2023-04-17T18:05:44.397Z,31.45
2023-04-17T18:08:10.927Z,28.40
2023-04-17T18:10:37.614Z,29.58
2023-04-17T18:13:04.605Z,29.10
2023-04-17T18:15:31.513Z,33.72
2023-04-17T18:17:58.224Z,36.13
2023-04-17T18:20:24.816Z,27.95
2023-04-17T18:22:52.054Z,28.45
2023-04-17T18:25:18.850Z,27.67
2023-04-17T18:27:45.503Z,31.30
2023-04-17T18:30:12.626Z,30.30
2023-04-17T18:32:39.277Z,30.60
2023-04-17T18:35:06.667Z,28.20
2023-04-17T18:37:33.420Z,28.63
2023-04-17T18:40:00.229Z,29.27
2023-04-17T18:42:27.088Z,32.55
2023-04-17T18:44:53.796Z,31.83
2023-04-17T18:47:20.488Z,25.85
2023-04-17T18:49:47.157Z,30.53
2023-04-17T18:52:13.769Z,30.08
2023-04-17T18:54:40.799Z,30.75
2023-04-17T18:57:07.453Z,36.88
2023-04-17T18:59:34.099Z,33.35
2023-04-17T19:02:00.808Z,27.63
2023-04-17T19:04:29.646Z,29.77
2023-04-17T19:06:58.215Z,34.58
2023-04-17T19:09:25.436Z,37.92
2023-04-17T19:11:52.127Z,32.58
2023-04-17T19:14:18.815Z,32.27
2023-04-17T19:16:47.229Z,32.10
2023-04-17T19:19:15.499Z,39.50
2023-04-17T19:21:42.338Z,37.80
2023-04-17T19:24:09.229Z,32.58
2023-04-17T19:26:37.179Z,37.97
2023-04-17T19:29:04.984Z,33.97
2023-04-17T19:31:32.998Z,35.55
2023-04-17T19:34:00.496Z,39.25
2023-04-17T19:36:28.143Z,39.97
2023-04-17T19:38:59.178Z,38.33
2023-04-17T19:41:26.390Z,38.58
2023-04-17T19:43:54.212Z,41.10
2023-04-17T19:46:22.976Z,41.05
2023-04-17T19:48:49.904Z,44.97
2023-04-17T19:51:17.048Z,43.63
2023-04-17T19:53:44.398Z,40.80
2023-04-17T19:56:11.367Z,47.92
2023-04-17T19:58:38.568Z,48.10
2023-04-17T20:01:05.388Z,44.38
2023-04-17T20:03:32.622Z,46.13
2023-04-17T20:06:00.140Z,49.03
2023-04-17T20:08:26.829Z,48.38
2023-04-17T20:10:53.527Z,53.00
2023-04-17T20:13:20.256Z,47.45
2023-04-17T20:15:46.969Z,49.07
2023-04-17T20:18:13.862Z,46.45
2023-04-17T20:20:40.500Z,48.70
2023-04-17T20:23:07.122Z,53.92
2023-04-17T20:25:33.871Z,64.20
2023-04-17T20:28:02.809Z,55.10
2023-04-17T20:30:29.731Z,59.83
2023-04-17T20:32:56.825Z,61.38
2023-04-17T20:35:26.495Z,57.55
2023-04-17T20:37:53.205Z,56.60
2023-04-17T20:40:22.163Z,65.40
2023-04-17T20:42:49.071Z,63.30
2023-04-17T20:45:15.849Z,65.35
2023-04-17T20:47:55.763Z,54.28
2023-04-17T20:50:24.636Z,51.83
2023-04-17T20:52:51.469Z,58.53
2023-04-17T20:55:20.146Z,48.38
2023-04-17T20:57:47.567Z,56.05
2023-04-17T21:00:14.537Z,55.58
2023-04-17T21:02:41.313Z,61.03
2023-04-17T21:05:08.572Z,52.87
2023-04-17T21:07:35.875Z,56.13
2023-04-17T21:10:03.143Z,59.78
2023-04-17T21:12:29.747Z,62.78
2023-04-17T21:14:56.533Z,62.33
2023-04-17T21:17:23.177Z,53.47
2023-04-17T21:19:51.297Z,62.10
2023-04-17T21:22:18.627Z,46.92
2023-04-17T21:24:45.368Z,48.33
2023-04-17T21:27:12.019Z,60.38
2023-04-17T21:29:38.549Z,59.03
2023-04-17T21:32:05.264Z,54.88
2023-04-17T21:34:31.903Z,56.53
2023-04-17T21:36:59.708Z,56.30
2023-04-17T21:39:26.305Z,56.67
2023-04-17T21:41:52.899Z,60.87
2023-04-17T21:44:19.717Z,61.95
2023-04-17T21:46:46.389Z,61.33
2023-04-17T21:49:13.141Z,59.38
2023-04-17T21:51:40.031Z,54.72
2023-04-17T21:54:09.131Z,55.03
2023-04-17T21:56:36.409Z,58.70
2023-04-17T21:59:03.508Z,56.25
2023-04-17T22:01:30.264Z,56.33
2023-04-17T22:03:56.951Z,55.92
2023-04-17T22:06:24.182Z,56.30
2023-04-17T22:08:50.898Z,59.45
2023-04-17T22:11:17.499Z,53.78
2023-04-17T22:13:45.176Z,62.10
2023-04-17T22:16:11.939Z,60.10
2023-04-17T22:18:38.865Z,57.37
2023-04-17T22:21:05.953Z,58.63
2023-04-17T22:23:32.545Z,56.40
2023-04-17T22:25:59.189Z,57.22
2023-04-17T22:28:29.768Z,63.55
2023-04-17T22:30:56.686Z,56.47
2023-04-17T22:33:23.284Z,52.85
2023-04-17T22:35:49.863Z,59.60
2023-04-17T22:38:16.681Z,50.85
2023-04-17T22:40:43.351Z,54.65
2023-04-17T22:43:10.627Z,45.33
2023-04-17T22:45:37.206Z,50.20
2023-04-17T22:48:04.139Z,46.30
2023-04-17T22:50:32.554Z,49.85
2023-04-17T22:52:59.138Z,48.95
2023-04-17T22:55:25.707Z,39.60
2023-04-17T22:57:52.458Z,48.22
2023-04-17T23:00:20.142Z,45.88
2023-04-17T23:02:47.464Z,48.40
2023-04-17T23:05:14.628Z,47.42
2023-04-17T23:07:41.449Z,50.53
2023-04-17T23:10:08.488Z,49.47
2023-04-17T23:12:35.106Z,46.83
2023-04-17T23:15:01.802Z,46.08
2023-04-17T23:17:28.406Z,45.78
2023-04-17T23:19:54.995Z,45.90
2023-04-17T23:22:21.589Z,45.53
2023-04-17T23:24:48.314Z,45.88
2023-04-17T23:27:14.879Z,37.72
2023-04-17T23:29:41.535Z,46.78
2023-04-17T23:32:08.204Z,36.37
2023-04-17T23:34:35.513Z,43.03
2023-04-17T23:37:02.720Z,44.67
2023-04-17T23:39:29.541Z,38.80
2023-04-17T23:41:57.717Z,43.47
2023-04-17T23:44:24.264Z,36.23
2023-04-17T23:46:51.426Z,36.15
2023-04-17T23:49:18.175Z,39.03
2023-04-17T23:51:44.933Z,37.88
2023-04-17T23:54:12.150Z,39.03
2023-04-17T23:56:39.041Z,36.67
2023-04-17T23:59:05.608Z,36.35
